createdAt,value
2022-10-20T00:01:35.987Z,8.20
2022-10-20T00:04:04.800Z,8.50
2022-10-20T00:06:33.667Z,8.80
2022-10-20T00:09:09.131Z,9.20
2022-10-20T00:11:39.674Z,9.00
2022-10-20T00:14:11.572Z,8.90
2022-10-20T00:16:40.437Z,8.60
2022-10-20T00:19:09.549Z,9.20
2022-10-20T00:21:38.377Z,9.50
2022-10-20T00:24:07.037Z,9.00
2022-10-20T00:26:35.889Z,9.80
2022-10-20T00:29:04.876Z,8.80
2022-10-20T00:31:34.002Z,9.40
2022-10-20T00:34:02.643Z,9.80
2022-10-20T00:36:32.003Z,9.40
2022-10-20T00:39:02.234Z,10.20
2022-10-20T00:41:31.710Z,8.80
2022-10-20T00:44:02.010Z,10.00
2022-10-20T00:46:39.490Z,10.10
2022-10-20T00:49:14.031Z,10.60
2022-10-20T00:51:48.135Z,10.50
2022-10-20T00:54:20.676Z,10.80
2022-10-20T00:56:50.930Z,11.10
2022-10-20T00:59:25.562Z,11.80
2022-10-20T01:01:54.738Z,10.90
2022-10-20T01:04:24.665Z,11.20
2022-10-20T01:06:54.253Z,11.50
2022-10-20T01:09:25.366Z,11.40
2022-10-20T01:12:03.601Z,10.90
2022-10-20T01:14:43.149Z,11.50
2022-10-20T01:17:23.657Z,11.00
2022-10-20T01:20:27.287Z,12.00
2022-10-20T01:23:27.737Z,11.40
2022-10-20T01:26:26.303Z,11.80
2022-10-20T01:29:00.176Z,12.10
2022-10-20T01:31:34.475Z,10.80
2022-10-20T01:34:10.193Z,10.40
2022-10-20T01:36:47.507Z,10.20
2022-10-20T01:39:23.785Z,10.90
2022-10-20T01:41:58.564Z,10.90
2022-10-20T01:44:32.129Z,12.10
2022-10-20T01:47:02.655Z,11.40
2022-10-20T01:49:31.617Z,12.70
2022-10-20T01:52:03.519Z,13.70
2022-10-20T01:54:32.116Z,13.10
2022-10-20T01:57:18.303Z,13.00
2022-10-20T02:00:01.542Z,12.20
2022-10-20T02:02:50.184Z,14.60
2022-10-20T02:05:40.037Z,13.80
2022-10-20T02:08:16.240Z,12.90
2022-10-20T02:10:48.257Z,14.60
2022-10-20T02:13:20.483Z,13.10
2022-10-20T02:15:52.968Z,13.80
2022-10-20T02:18:25.909Z,14.00
2022-10-20T02:20:57.320Z,15.30
2022-10-20T02:23:26.551Z,13.30
2022-10-20T02:26:01.290Z,16.00
2022-10-20T02:28:36.123Z,17.40
2022-10-20T02:31:08.083Z,12.80
2022-10-20T02:33:37.292Z,12.80
2022-10-20T02:36:11.939Z,12.80
2022-10-20T02:38:40.488Z,12.30
2022-10-20T02:41:09.125Z,14.40
2022-10-20T02:43:38.241Z,13.90
2022-10-20T02:46:07.221Z,15.80
2022-10-20T02:48:37.761Z,14.80
2022-10-20T02:51:06.616Z,14.60
2022-10-20T02:53:37.727Z,16.00
2022-10-20T02:56:07.278Z,14.00
2022-10-20T02:58:36.474Z,14.20
2022-10-20T03:01:05.485Z,15.80
2022-10-20T03:03:34.124Z,13.60
2022-10-20T03:06:09.740Z,13.10
2022-10-20T03:08:38.909Z,12.70
2022-10-20T03:11:10.219Z,11.80
2022-10-20T03:13:38.941Z,12.40
2022-10-20T03:16:08.703Z,10.90
2022-10-20T03:18:39.335Z,12.00
2022-10-20T03:21:08.498Z,11.50
2022-10-20T03:23:37.078Z,12.00
2022-10-20T03:26:08.391Z,12.20
2022-10-20T03:28:36.998Z,12.50
2022-10-20T03:31:06.686Z,11.90
2022-10-20T03:33:35.808Z,10.90
2022-10-20T03:36:05.642Z,11.40
2022-10-20T03:38:34.658Z,12.90
2022-10-20T03:41:03.851Z,13.20
2022-10-20T03:43:32.744Z,11.60
2022-10-20T03:46:06.782Z,14.00
2022-10-20T03:48:36.082Z,17.20
2022-10-20T03:53:49.198Z,14.60
2022-10-20T03:56:19.877Z,11.90
2022-10-20T03:58:50.646Z,14.10
2022-10-20T04:01:23.698Z,12.10
2022-10-20T04:03:52.495Z,12.00
2022-10-20T04:06:23.377Z,11.70
2022-10-20T04:08:54.691Z,11.80
2022-10-20T04:11:23.729Z,12.80
2022-10-20T04:13:52.390Z,12.10
2022-10-20T04:16:21.020Z,12.00
2022-10-20T04:18:51.262Z,13.30
2022-10-20T04:21:19.921Z,12.40
2022-10-20T04:23:48.564Z,14.00
2022-10-20T04:26:17.285Z,12.50
2022-10-20T04:28:45.862Z,12.30
2022-10-20T04:31:14.472Z,12.30
2022-10-20T04:33:46.015Z,12.20
2022-10-20T04:36:14.820Z,12.70
2022-10-20T04:38:43.761Z,12.20
2022-10-20T04:41:12.464Z,12.50
2022-10-20T04:43:41.099Z,12.70
2022-10-20T04:46:11.295Z,12.70
2022-10-20T04:48:43.427Z,11.90
2022-10-20T04:51:15.326Z,13.60
2022-10-20T04:53:44.502Z,12.30
2022-10-20T04:56:17.757Z,12.50
2022-10-20T04:58:51.118Z,12.70
2022-10-20T05:01:25.407Z,14.40
2022-10-20T05:03:54.231Z,14.60
2022-10-20T05:06:24.938Z,13.90
2022-10-20T05:08:55.459Z,14.50
2022-10-20T05:11:26.575Z,13.90
2022-10-20T05:13:55.790Z,14.00
2022-10-20T05:16:27.905Z,13.40
2022-10-20T05:18:57.550Z,14.80
2022-10-20T05:21:28.529Z,17.40
2022-10-20T05:23:58.646Z,16.90
2022-10-20T05:26:31.894Z,21.10
2022-10-20T05:29:01.968Z,27.00
2022-10-20T05:31:30.643Z,34.30
2022-10-20T05:33:59.279Z,35.60
2022-10-20T05:36:28.923Z,34.20
2022-10-20T05:38:57.567Z,27.50
2022-10-20T05:41:28.524Z,22.70
2022-10-20T05:43:59.068Z,18.60
2022-10-20T05:46:29.314Z,15.70
2022-10-20T05:48:59.708Z,15.20
2022-10-20T05:51:30.416Z,14.30
2022-10-20T05:54:02.533Z,13.50
2022-10-20T05:56:33.010Z,13.50
2022-10-20T05:59:01.631Z,13.90
2022-10-20T06:01:39.560Z,13.40
2022-10-20T06:04:08.435Z,13.50
2022-10-20T06:06:37.300Z,14.00
2022-10-20T06:09:07.823Z,17.60
2022-10-20T06:11:39.478Z,60.60
2022-10-20T06:14:09.174Z,115.90
2022-10-20T06:16:37.874Z,101.90
2022-10-20T06:19:06.682Z,90.20
2022-10-20T06:21:37.353Z,86.00
2022-10-20T06:24:07.328Z,67.10
2022-10-20T06:26:40.155Z,37.40
2022-10-20T06:29:12.060Z,38.70
2022-10-20T06:31:43.940Z,23.80
2022-10-20T06:34:15.884Z,17.90
2022-10-20T06:36:45.475Z,16.80
2022-10-20T06:39:16.837Z,17.30
2022-10-20T06:41:50.039Z,22.30
2022-10-20T06:44:23.095Z,20.00
2022-10-20T06:46:52.039Z,18.70
2022-10-20T06:49:21.066Z,20.60
2022-10-20T06:51:50.127Z,16.90
2022-10-20T06:54:18.858Z,15.70
2022-10-20T06:56:47.884Z,14.70
2022-10-20T06:59:16.752Z,14.90
2022-10-20T07:01:45.364Z,15.50
2022-10-20T07:04:15.598Z,15.20
2022-10-20T07:06:46.095Z,18.60
2022-10-20T08:35:49.036Z,12.80
2022-10-20T08:38:21.030Z,15.00
2022-10-20T08:40:53.090Z,14.10
2022-10-20T08:43:26.409Z,13.40
2022-10-20T08:45:58.692Z,12.80
2022-10-20T08:48:33.807Z,13.00
2022-10-20T08:51:06.216Z,12.50
2022-10-20T08:53:41.329Z,11.10
2022-10-20T08:56:15.320Z,10.00
2022-10-20T08:58:47.920Z,10.70
2022-10-20T09:01:24.437Z,9.90
2022-10-20T09:03:59.830Z,10.20
2022-10-20T09:06:32.323Z,9.40
2022-10-20T09:09:05.023Z,6.60
2022-10-20T09:11:41.272Z,7.90
2022-10-20T09:14:14.016Z,7.10
2022-10-20T09:16:59.890Z,7.50
2022-10-20T09:19:33.703Z,8.20
2022-10-20T09:22:08.321Z,8.80
2022-10-20T09:24:42.896Z,11.60
2022-10-20T09:27:31.146Z,7.70
2022-10-20T09:30:17.399Z,7.10
2022-10-20T09:32:50.686Z,4.80
2022-10-20T09:35:31.805Z,5.00
2022-10-20T09:38:19.965Z,4.70
2022-10-20T09:41:08.215Z,3.10
2022-10-20T09:43:49.032Z,3.90
2022-10-20T09:46:25.568Z,6.00
2022-10-20T09:49:01.022Z,83.20
2022-10-20T09:51:34.080Z,21.30
2022-10-20T09:54:09.077Z,6.70
2022-10-20T09:56:43.241Z,6.00
2022-10-20T09:59:26.364Z,5.10
2022-10-20T10:02:01.358Z,3.60
2022-10-20T10:04:37.008Z,2.60
2022-10-20T10:07:33.082Z,3.00
2022-10-20T10:10:08.756Z,2.50
2022-10-20T10:12:41.098Z,3.50
2022-10-20T10:15:32.564Z,2.40
2022-10-20T10:18:16.141Z,2.10
2022-10-20T10:20:48.541Z,7.00
2022-10-20T10:23:23.936Z,4.00
2022-10-20T10:25:59.333Z,2.20
2022-10-20T10:28:38.588Z,2.50
2022-10-20T10:31:25.201Z,1.90
2022-10-20T10:34:23.862Z,1.50
2022-10-20T10:36:56.557Z,1.50
2022-10-20T10:39:30.354Z,1.50
2022-10-20T10:42:17.192Z,5.00
2022-10-20T10:45:00.801Z,2.60
2022-10-20T10:48:02.210Z,1.20
2022-10-20T10:50:42.558Z,1.00
2022-10-20T10:53:29.930Z,1.70
2022-10-20T10:56:14.146Z,1.40
2022-10-20T10:58:52.927Z,2.00
2022-10-20T11:02:02.999Z,2.40
2022-10-20T11:05:05.310Z,2.20
2022-10-20T11:07:44.150Z,2.30
2022-10-20T11:10:23.872Z,3.80
2022-10-20T11:13:13.932Z,2.70
2022-10-20T11:15:59.788Z,2.00
2022-10-20T11:18:52.445Z,2.10
2022-10-20T11:21:33.990Z,1.90
2022-10-20T11:24:17.819Z,1.70
2022-10-20T11:26:54.539Z,1.10
2022-10-20T11:29:37.588Z,1.00
2022-10-20T11:32:19.208Z,1.30
2022-10-20T11:35:02.182Z,3.60
2022-10-20T11:37:39.886Z,5.80
2022-10-20T11:40:23.432Z,2.60
2022-10-20T11:43:02.314Z,1.30
2022-10-20T11:45:44.130Z,1.10
2022-10-20T11:48:24.069Z,1.30
2022-10-20T11:51:11.491Z,0.90
2022-10-20T11:54:05.434Z,1.10
2022-10-20T11:56:54.769Z,1.40
2022-10-20T11:59:48.165Z,1.60
2022-10-20T12:03:08.794Z,1.10
2022-10-20T12:06:04.147Z,1.50
2022-10-20T12:08:54.833Z,1.50
2022-10-20T12:11:33.036Z,1.80
2022-10-20T12:14:17.595Z,1.30
2022-10-20T12:17:27.294Z,1.30
2022-10-20T12:20:30.050Z,1.40
2022-10-20T12:23:03.046Z,1.50
2022-10-20T12:25:42.287Z,1.50
2022-10-20T12:28:35.284Z,1.30
2022-10-20T12:31:08.455Z,1.40
2022-10-20T12:34:03.848Z,1.20
2022-10-20T12:36:37.685Z,1.50
2022-10-20T12:39:22.511Z,2.60
2022-10-20T12:42:05.227Z,1.80
2022-10-20T12:44:45.108Z,1.20
2022-10-20T12:47:29.980Z,1.40
2022-10-20T12:50:06.300Z,1.60
2022-10-20T12:52:41.721Z,1.30
2022-10-20T12:55:23.477Z,1.40
2022-10-20T12:58:13.317Z,1.60
2022-10-20T13:01:07.880Z,1.40
2022-10-20T13:03:47.023Z,2.10
2022-10-20T13:10:49.403Z,1.80
2022-10-20T13:14:03.865Z,1.80
2022-10-20T13:16:37.559Z,1.80
2022-10-20T13:19:15.091Z,2.10
2022-10-20T13:21:49.625Z,3.20
2022-10-20T13:24:27.793Z,1.70
2022-10-20T13:27:05.393Z,1.50
2022-10-20T13:29:43.236Z,1.60
2022-10-20T13:32:23.510Z,1.60
2022-10-20T13:35:00.087Z,1.50
2022-10-20T13:37:53.760Z,1.20
2022-10-20T13:40:37.383Z,1.40
2022-10-20T13:43:28.520Z,1.40
2022-10-20T13:46:19.354Z,1.60
2022-10-20T13:49:11.257Z,1.30
2022-10-20T13:51:48.404Z,1.30
2022-10-20T13:54:28.702Z,1.40
2022-10-20T13:57:02.966Z,1.40
2022-10-20T13:59:58.327Z,1.20
2022-10-20T14:02:35.734Z,1.40
2022-10-20T14:05:15.061Z,1.40
2022-10-20T14:07:47.536Z,1.50
2022-10-20T14:29:56.462Z,2.40
2022-10-20T14:43:40.006Z,2.90
2022-10-20T14:46:15.454Z,3.20
2022-10-20T14:48:51.789Z,2.20
2022-10-20T14:51:39.788Z,1.80
2022-10-20T14:54:27.049Z,1.60
2022-10-20T14:57:00.728Z,1.90
2022-10-20T14:59:35.055Z,2.30
2022-10-20T15:02:12.598Z,1.70
2022-10-20T15:04:46.154Z,1.90
2022-10-20T15:07:20.856Z,1.60
2022-10-20T15:10:02.928Z,1.50
2022-10-20T15:12:43.677Z,1.80
2022-10-20T15:15:27.373Z,2.30
2022-10-20T15:18:19.154Z,2.50
2022-10-20T15:20:51.889Z,3.00
2022-10-20T15:23:26.021Z,3.20
2022-10-20T15:26:02.884Z,3.40
2022-10-20T15:28:42.132Z,4.10
2022-10-20T15:31:23.596Z,4.20
2022-10-20T15:33:57.636Z,4.40
2022-10-20T15:36:33.369Z,6.60
2022-10-20T15:39:06.601Z,4.70
2022-10-20T15:41:39.557Z,3.60
2022-10-20T15:44:17.006Z,6.00
2022-10-20T15:46:50.095Z,5.90
2022-10-20T15:49:23.964Z,13.40
2022-10-20T15:51:56.111Z,14.70
2022-10-20T15:54:28.228Z,9.80
2022-10-20T15:57:01.416Z,12.20
2022-10-20T15:59:33.549Z,12.70
2022-10-20T16:02:08.301Z,12.00
2022-10-20T16:04:40.450Z,12.90
2022-10-20T16:07:12.515Z,11.70
2022-10-20T16:13:39.493Z,20.50
2022-10-20T16:16:17.502Z,274.10
2022-10-20T16:18:49.741Z,215.20
2022-10-20T16:21:21.807Z,304.80
2022-10-20T16:23:54.076Z,209.20
2022-10-20T16:30:39.679Z,162.50
2022-10-20T16:33:12.418Z,221.60
2022-10-20T16:35:55.046Z,100.60
2022-10-20T16:38:44.077Z,53.30
2022-10-20T16:41:20.883Z,24.80
2022-10-20T16:44:00.919Z,18.40
2022-10-20T16:46:51.543Z,11.60
2022-10-20T16:49:40.283Z,10.70
2022-10-20T16:52:26.330Z,10.80
2022-10-20T16:54:58.353Z,13.90
2022-10-20T16:57:38.392Z,14.70
2022-10-20T17:00:16.213Z,17.00
2022-10-20T17:02:57.821Z,23.50
2022-10-20T17:05:30.321Z,22.40
2022-10-20T17:08:02.879Z,30.30
2022-10-20T18:00:22.904Z,11.00
2022-10-20T18:03:06.281Z,12.40
2022-10-20T18:05:39.694Z,12.80
2022-10-20T18:08:11.708Z,13.50
2022-10-20T18:21:28.362Z,10.20
2022-10-20T18:24:02.606Z,10.30
2022-10-20T18:26:36.534Z,12.70
2022-10-20T18:29:10.368Z,10.10
2022-10-20T18:31:44.905Z,10.80
2022-10-20T18:34:20.613Z,12.20
2022-10-20T18:36:56.734Z,11.60
2022-10-20T18:39:29.037Z,12.80
2022-10-20T18:42:01.767Z,12.30
2022-10-20T18:49:09.249Z,17.80
2022-10-20T18:54:34.785Z,12.20
2022-10-20T18:57:06.963Z,11.50
2022-10-20T18:59:39.062Z,10.60
2022-10-20T19:02:13.276Z,10.60
2022-10-20T19:04:45.388Z,10.80
2022-10-20T19:07:18.037Z,12.70
2022-10-20T19:09:54.815Z,12.10
2022-10-20T19:12:28.026Z,12.10
2022-10-20T19:15:00.043Z,11.20
2022-10-20T19:17:35.136Z,10.80
2022-10-20T19:20:08.215Z,10.70
2022-10-20T19:22:40.585Z,11.10
2022-10-20T19:25:13.157Z,12.80
2022-10-20T19:27:45.164Z,13.50
2022-10-20T19:30:17.396Z,12.30
2022-10-20T19:32:52.328Z,11.90
2022-10-20T19:35:24.799Z,11.60
2022-10-20T19:37:56.925Z,12.20
2022-10-20T19:40:29.063Z,11.30
2022-10-20T19:43:01.076Z,10.40
2022-10-20T19:45:33.514Z,11.10
2022-10-20T19:48:06.368Z,11.60
2022-10-20T19:50:38.512Z,10.70
2022-10-20T19:53:10.473Z,10.90
2022-10-20T19:55:42.493Z,13.50
2022-10-20T19:58:14.638Z,18.00
2022-10-20T20:00:47.963Z,26.40
2022-10-20T20:03:20.368Z,15.50
2022-10-20T20:05:59.679Z,13.00
2022-10-20T20:08:31.866Z,11.90
2022-10-20T20:11:05.322Z,12.60
2022-10-20T20:13:39.483Z,11.30
2022-10-20T20:16:11.722Z,11.50
2022-10-20T20:18:43.857Z,11.80
2022-10-20T20:21:15.984Z,12.20
2022-10-20T20:23:59.485Z,11.90
2022-10-20T20:26:37.899Z,11.60
2022-10-20T20:29:10.724Z,11.70
2022-10-20T20:31:43.229Z,11.90
2022-10-20T20:34:15.374Z,11.20
2022-10-20T20:36:47.524Z,11.20
2022-10-20T20:39:19.637Z,11.90
2022-10-20T20:41:51.630Z,11.20
2022-10-20T20:47:03.113Z,10.80
2022-10-20T20:49:35.174Z,11.10
2022-10-20T20:52:07.813Z,10.90
2022-10-20T20:54:39.829Z,10.50
2022-10-20T20:57:11.923Z,10.60
2022-10-20T20:59:44.669Z,11.20
2022-10-20T21:02:17.035Z,12.40
2022-10-20T21:04:49.089Z,11.00
2022-10-20T21:07:21.490Z,10.80
2022-10-20T21:29:20.733Z,8.80
2022-10-20T21:43:17.647Z,9.10
2022-10-20T23:49:58.895Z,8.60
